createdAt,value
2019-05-28T00:01:22.058Z,72.30
2019-05-28T00:03:52.150Z,73.01
2019-05-28T00:06:22.233Z,73.04
2019-05-28T00:08:52.343Z,72.79
2019-05-28T00:11:22.465Z,72.98
2019-05-28T00:13:52.626Z,72.81
2019-05-28T00:16:22.791Z,73.85
2019-05-28T00:18:52.863Z,74.01
2019-05-28T00:21:22.941Z,74.85
2019-05-28T00:23:53.024Z,74.94
2019-05-28T00:26:23.096Z,74.04
2019-05-28T00:28:53.193Z,74.65
2019-05-28T00:31:23.342Z,74.96
2019-05-28T00:33:53.440Z,74.95
2019-05-28T00:36:23.536Z,75.40
2019-05-28T00:38:53.624Z,75.00
2019-05-28T00:41:23.740Z,75.54
2019-05-28T00:43:53.872Z,75.39
2019-05-28T00:46:23.924Z,76.00
2019-05-28T00:48:54.003Z,76.57
2019-05-28T00:51:24.051Z,76.63
2019-05-28T00:53:54.131Z,76.88
2019-05-28T00:56:24.384Z,77.32
2019-05-28T00:58:55.127Z,78.12
2019-05-28T01:01:25.170Z,78.16
2019-05-28T01:03:55.262Z,78.65
2019-05-28T01:06:25.325Z,78.45
2019-05-28T01:08:55.402Z,78.73
2019-05-28T01:11:25.457Z,79.31
2019-05-28T01:13:55.564Z,79.88
2019-05-28T01:16:25.675Z,80.08
2019-05-28T01:18:55.761Z,80.39
2019-05-28T01:21:25.944Z,80.73
2019-05-28T01:23:56.034Z,80.96
2019-05-28T01:26:26.087Z,81.66
2019-05-28T01:28:56.453Z,81.77
2019-05-28T01:31:26.511Z,81.76
2019-05-28T01:33:56.578Z,82.40
2019-05-28T01:36:26.711Z,82.75
2019-05-28T01:38:56.771Z,82.85
2019-05-28T01:41:26.841Z,82.70
2019-05-28T01:43:57.046Z,83.13
2019-05-28T01:46:27.124Z,83.53
2019-05-28T01:48:57.183Z,83.63
2019-05-28T01:51:27.241Z,83.89
2019-05-28T01:53:57.338Z,83.80
2019-05-28T01:56:27.429Z,83.75
2019-05-28T01:59:00.569Z,84.12
2019-05-28T02:01:30.657Z,84.77
2019-05-28T02:04:00.739Z,85.01
2019-05-28T02:06:30.801Z,84.87
2019-05-28T02:09:00.877Z,85.33
2019-05-28T02:11:30.925Z,85.17
2019-05-28T02:14:01.009Z,85.94
2019-05-28T02:16:31.144Z,86.08
2019-05-28T02:19:01.267Z,86.54
2019-05-28T02:21:31.349Z,86.81
2019-05-28T02:24:01.421Z,86.45
2019-05-28T02:26:31.468Z,86.90
2019-05-28T02:29:01.548Z,86.77
2019-05-28T02:31:31.596Z,86.60
2019-05-28T02:34:01.675Z,87.13
2019-05-28T02:36:31.739Z,86.96
2019-05-28T02:39:01.840Z,87.01
2019-05-28T02:41:31.908Z,87.61
2019-05-28T02:44:01.996Z,87.69
2019-05-28T02:46:32.056Z,87.50
2019-05-28T02:49:02.131Z,87.96
2019-05-28T02:51:32.491Z,87.93
2019-05-28T02:54:03.892Z,88.33
2019-05-28T02:56:35.385Z,87.71
2019-05-28T02:59:05.470Z,88.20
2019-05-28T03:01:44.214Z,87.79
2019-05-28T03:04:10.615Z,88.17
2019-05-28T03:06:43.641Z,88.08
2019-05-28T03:09:13.695Z,87.75
2019-05-28T03:11:43.768Z,87.86
2019-05-28T03:14:13.837Z,87.78
2019-05-28T03:16:46.849Z,87.91
2019-05-28T03:19:17.689Z,87.52
2019-05-28T03:21:48.666Z,88.17
2019-05-28T03:24:20.363Z,88.11
2019-05-28T03:26:50.452Z,88.26
2019-05-28T03:29:20.525Z,88.01
2019-05-28T03:32:07.262Z,87.75
2019-05-28T03:34:22.409Z,88.17
2019-05-28T03:36:54.283Z,87.88
2019-05-28T03:39:25.568Z,87.87
2019-05-28T03:41:55.627Z,87.96
2019-05-28T03:44:25.738Z,88.40
2019-05-28T03:46:55.825Z,88.63
2019-05-28T03:49:25.889Z,88.10
2019-05-28T03:51:55.961Z,87.81
2019-05-28T03:54:26.018Z,87.88
2019-05-28T03:56:56.213Z,87.00
2019-05-28T03:59:26.265Z,87.49
2019-05-28T04:01:56.463Z,87.26
2019-05-28T04:04:26.537Z,87.15
2019-05-28T04:06:56.622Z,87.34
2019-05-28T04:09:26.717Z,87.57
2019-05-28T04:11:56.780Z,87.21
2019-05-28T04:14:26.879Z,86.85
2019-05-28T04:16:56.936Z,86.54
2019-05-28T04:19:27.033Z,85.66
2019-05-28T04:21:57.115Z,84.89
2019-05-28T04:24:27.207Z,83.83
2019-05-28T04:26:57.387Z,83.64
2019-05-28T04:29:27.571Z,84.28
2019-05-28T04:31:57.739Z,83.69
2019-05-28T04:34:27.807Z,83.18
2019-05-28T04:36:57.874Z,82.93
2019-05-28T04:39:27.979Z,83.31
2019-05-28T04:41:58.094Z,83.21
2019-05-28T04:44:28.201Z,83.00
2019-05-28T04:46:58.389Z,82.09
2019-05-28T04:49:28.494Z,82.00
2019-05-28T04:51:58.580Z,81.71
2019-05-28T04:54:28.690Z,81.73
2019-05-28T04:56:58.834Z,80.92
2019-05-28T04:59:28.894Z,81.19
2019-05-28T05:01:59.005Z,80.52
2019-05-28T05:04:29.104Z,79.94
2019-05-28T05:06:59.230Z,75.22
2019-05-28T05:09:29.329Z,71.05
2019-05-28T05:11:59.430Z,69.07
2019-05-28T05:14:29.586Z,66.20
2019-05-28T05:16:59.645Z,66.44
2019-05-28T05:19:29.753Z,66.83
2019-05-28T05:21:59.884Z,66.16
2019-05-28T05:24:29.972Z,63.29
2019-05-28T05:27:00.035Z,63.03
2019-05-28T05:29:30.185Z,61.75
2019-05-28T05:32:00.259Z,60.84
2019-05-28T05:34:30.343Z,59.97
2019-05-28T05:37:00.401Z,58.59
2019-05-28T05:39:30.486Z,60.04
2019-05-28T05:42:00.703Z,62.07
2019-05-28T05:44:30.806Z,60.95
2019-05-28T05:47:00.894Z,61.49
2019-05-28T05:49:30.956Z,65.07
2019-05-28T05:52:01.067Z,65.39
2019-05-28T05:54:31.190Z,68.62
2019-05-28T05:57:01.314Z,70.00
2019-05-28T05:59:31.385Z,65.63
2019-05-28T06:02:01.466Z,68.71
2019-05-28T06:04:31.538Z,70.11
2019-05-28T06:07:01.661Z,68.42
2019-05-28T06:09:31.751Z,63.32
2019-05-28T06:12:01.837Z,59.39
2019-05-28T06:14:31.921Z,61.15
2019-05-28T06:17:02.062Z,56.64
2019-05-28T06:19:32.289Z,59.59
2019-05-28T06:22:02.384Z,59.02
2019-05-28T06:24:32.425Z,55.82
2019-05-28T06:27:02.509Z,57.14
2019-05-28T06:29:32.592Z,54.44
2019-05-28T06:32:02.680Z,50.99
2019-05-28T06:34:32.759Z,51.99
2019-05-28T06:37:02.816Z,50.49
2019-05-28T06:39:32.911Z,54.65
2019-05-28T06:42:02.979Z,56.19
2019-05-28T06:44:33.047Z,53.39
2019-05-28T06:47:03.111Z,51.12
2019-05-28T06:49:33.185Z,50.27
2019-05-28T06:52:03.273Z,50.80
2019-05-28T06:54:33.351Z,50.36
2019-05-28T06:57:03.425Z,49.04
2019-05-28T06:59:33.509Z,53.46
2019-05-28T07:02:03.887Z,56.66
2019-05-28T07:04:34.009Z,58.76
2019-05-28T07:07:04.233Z,61.21
2019-05-28T07:09:34.318Z,59.38
2019-05-28T07:12:04.491Z,57.58
2019-05-28T07:14:34.599Z,54.63
2019-05-28T07:17:04.671Z,58.10
2019-05-28T07:19:34.747Z,56.25
2019-05-28T07:22:04.951Z,57.21
2019-05-28T07:24:35.166Z,55.42
2019-05-28T07:27:05.432Z,55.48
2019-05-28T07:29:35.524Z,53.37
2019-05-28T07:32:05.622Z,50.79
2019-05-28T07:34:35.719Z,49.05
2019-05-28T07:37:05.817Z,46.09
2019-05-28T07:39:36.160Z,50.75
2019-05-28T07:42:06.222Z,47.93
2019-05-28T07:44:38.397Z,46.46
2019-05-28T07:47:11.086Z,47.23
2019-05-28T07:49:40.286Z,50.35
2019-05-28T07:52:10.513Z,50.47
2019-05-28T07:54:40.620Z,51.01
2019-05-28T07:57:10.726Z,53.58
2019-05-28T07:59:40.790Z,50.01
2019-05-28T08:02:10.862Z,50.62
2019-05-28T08:04:47.093Z,51.34
2019-05-28T08:07:12.771Z,50.72
2019-05-28T08:09:42.842Z,46.12
2019-05-28T08:12:12.977Z,46.54
2019-05-28T08:14:43.063Z,45.37
2019-05-28T08:17:13.167Z,45.04
2019-05-28T08:19:43.267Z,45.12
2019-05-28T08:22:13.888Z,48.19
2019-05-28T08:24:44.097Z,49.78
2019-05-28T08:27:14.230Z,48.74
2019-05-28T08:29:45.717Z,44.71
2019-05-28T08:32:16.005Z,43.46
2019-05-28T08:34:46.063Z,46.33
2019-05-28T08:37:16.161Z,46.22
2019-05-28T08:39:46.218Z,48.48
2019-05-28T08:42:20.662Z,47.77
2019-05-28T08:44:48.131Z,47.27
2019-05-28T08:47:18.258Z,44.71
2019-05-28T08:49:48.372Z,42.69
2019-05-28T08:52:18.470Z,41.78
2019-05-28T08:54:51.160Z,40.72
2019-05-28T08:57:20.379Z,42.07
2019-05-28T08:59:50.465Z,43.31
2019-05-28T09:02:28.182Z,46.60
2019-05-28T09:04:52.425Z,48.12
2019-05-28T09:07:22.545Z,47.21
2019-05-28T09:09:52.614Z,42.13
2019-05-28T09:12:22.753Z,42.19
2019-05-28T09:14:56.373Z,43.29
2019-05-28T09:17:24.647Z,41.81
2019-05-28T09:19:54.704Z,40.98
2019-05-28T09:22:26.337Z,42.47
2019-05-28T09:24:56.688Z,44.46
2019-05-28T09:27:26.840Z,41.91
2019-05-28T09:29:56.936Z,42.85
2019-05-28T09:32:27.078Z,42.33
2019-05-28T09:34:57.168Z,43.16
2019-05-28T09:37:27.354Z,43.05
2019-05-28T09:39:57.419Z,45.67
2019-05-28T09:42:27.518Z,46.34
2019-05-28T09:44:57.600Z,45.95
2019-05-28T09:47:30.002Z,47.72
2019-05-28T09:50:00.096Z,47.86
2019-05-28T09:52:30.408Z,47.36
2019-05-28T09:55:00.497Z,47.11
2019-05-28T09:57:30.764Z,46.63
2019-05-28T10:00:00.896Z,47.23
2019-05-28T10:02:31.074Z,46.18
2019-05-28T10:05:01.135Z,45.11
2019-05-28T10:07:31.234Z,45.18
2019-05-28T10:10:01.300Z,43.64
2019-05-28T10:12:31.407Z,44.46
2019-05-28T10:15:01.468Z,44.33
2019-05-28T10:17:31.588Z,44.44
2019-05-28T10:20:01.680Z,44.96
2019-05-28T10:22:31.736Z,44.10
2019-05-28T10:25:02.032Z,42.10
2019-05-28T10:27:32.094Z,42.32
2019-05-28T10:30:02.294Z,40.97
2019-05-28T10:32:32.429Z,41.42
2019-05-28T10:35:04.296Z,41.02
2019-05-28T10:37:34.342Z,41.88
2019-05-28T10:40:05.587Z,41.04
2019-05-28T10:42:35.670Z,43.20
2019-05-28T10:45:07.167Z,44.73
2019-05-28T10:47:37.245Z,44.33
2019-05-28T10:50:07.883Z,45.04
2019-05-28T10:52:37.964Z,44.39
2019-05-28T10:55:08.544Z,47.34
2019-05-28T10:57:38.625Z,48.58
2019-05-28T11:00:09.686Z,47.34
2019-05-28T11:02:39.753Z,47.56
2019-05-28T11:05:10.914Z,47.61
2019-05-28T11:07:40.994Z,46.35
2019-05-28T11:10:23.926Z,46.05
2019-05-28T11:12:43.789Z,45.46
2019-05-28T11:15:14.669Z,47.70
2019-05-28T11:17:44.807Z,46.62
2019-05-28T11:20:16.673Z,45.56
2019-05-28T11:22:46.752Z,45.18
2019-05-28T11:25:18.366Z,45.91
2019-05-28T11:27:48.463Z,43.86
2019-05-28T11:30:19.393Z,43.66
2019-05-28T11:32:49.541Z,40.54
2019-05-28T11:35:20.191Z,37.71
2019-05-28T11:37:52.045Z,37.63
2019-05-28T11:40:25.736Z,36.10
2019-05-28T11:42:55.816Z,35.33
2019-05-28T11:45:25.892Z,38.90
2019-05-28T11:47:55.983Z,38.55
2019-05-28T11:50:28.431Z,39.73
2019-05-28T11:52:58.509Z,41.66
2019-05-28T11:55:28.773Z,41.74
2019-05-28T11:57:58.847Z,40.36
2019-05-28T12:00:29.436Z,41.51
2019-05-28T12:02:59.506Z,42.26
2019-05-28T12:05:29.923Z,41.21
2019-05-28T12:07:59.971Z,39.70
2019-05-28T12:10:30.250Z,38.62
2019-05-28T12:13:00.321Z,37.25
2019-05-28T12:15:30.464Z,38.97
2019-05-28T12:18:00.546Z,40.20
2019-05-28T12:20:32.178Z,39.76
2019-05-28T12:23:11.348Z,41.59
2019-05-28T12:25:34.111Z,40.90
2019-05-28T12:28:04.402Z,40.34
2019-05-28T12:30:34.695Z,37.99
2019-05-28T12:33:04.819Z,37.48
2019-05-28T12:35:35.082Z,37.42
2019-05-28T12:38:05.344Z,37.05
2019-05-28T12:40:47.038Z,37.98
2019-05-28T12:43:07.260Z,39.05
2019-05-28T12:45:37.342Z,40.61
2019-05-28T12:48:12.211Z,40.40
2019-05-28T12:50:39.236Z,40.97
2019-05-28T12:53:09.309Z,38.86
2019-05-28T12:55:39.408Z,40.74
2019-05-28T12:58:09.511Z,41.04
2019-05-28T13:00:40.032Z,38.44
2019-05-28T13:03:10.109Z,36.16
2019-05-28T13:05:40.243Z,36.82
2019-05-28T13:08:10.817Z,34.54
2019-05-28T13:10:41.055Z,35.75
2019-05-28T13:13:11.111Z,37.25
2019-05-28T13:15:42.639Z,37.82
2019-05-28T13:18:13.078Z,38.03
2019-05-28T13:20:43.217Z,35.23
2019-05-28T13:23:13.303Z,35.52
2019-05-28T13:25:43.861Z,35.15
2019-05-28T13:28:13.935Z,35.08
2019-05-28T13:30:44.038Z,35.29
2019-05-28T13:33:14.120Z,36.81
2019-05-28T13:35:44.242Z,35.50
2019-05-28T13:38:26.522Z,36.92
2019-05-28T13:40:46.177Z,38.41
2019-05-28T13:43:16.261Z,40.59
2019-05-28T13:45:46.410Z,40.44
2019-05-28T13:48:16.502Z,42.58
2019-05-28T13:50:46.679Z,41.59
2019-05-28T13:53:17.669Z,42.36
2019-05-28T13:55:47.797Z,41.62
2019-05-28T13:58:17.888Z,42.36
2019-05-28T14:00:48.008Z,42.52
2019-05-28T14:03:18.085Z,38.06
2019-05-28T14:05:48.181Z,36.72
2019-05-28T14:08:18.264Z,34.92
2019-05-28T14:10:48.353Z,33.45
2019-05-28T14:13:18.443Z,33.19
2019-05-28T14:15:48.521Z,34.35
2019-05-28T14:18:18.606Z,33.02
2019-05-28T14:20:48.700Z,32.69
2019-05-28T14:23:18.830Z,32.32
2019-05-28T14:25:48.920Z,33.93
2019-05-28T14:28:19.029Z,36.38
2019-05-28T14:30:59.217Z,39.25
2019-05-28T14:33:20.916Z,39.95
2019-05-28T14:35:51.001Z,40.37
2019-05-28T14:38:21.078Z,41.67
2019-05-28T14:40:52.172Z,43.75
2019-05-28T14:43:22.858Z,40.75
2019-05-28T14:45:52.922Z,41.89
2019-05-28T14:48:23.007Z,43.66
2019-05-28T14:50:53.109Z,43.54
2019-05-28T14:53:23.205Z,44.68
2019-05-28T14:55:53.336Z,44.98
2019-05-28T14:58:23.412Z,44.95
2019-05-28T15:00:53.511Z,45.38
2019-05-28T15:03:23.646Z,44.26
2019-05-28T15:05:53.729Z,44.62
2019-05-28T15:08:23.835Z,45.14
2019-05-28T15:10:53.920Z,44.38
2019-05-28T15:13:24.624Z,44.07
2019-05-28T15:15:54.730Z,44.71
2019-05-28T15:18:24.798Z,44.52
2019-05-28T15:20:55.018Z,43.97
2019-05-28T15:23:25.199Z,44.50
2019-05-28T15:25:55.283Z,43.05
2019-05-28T15:28:25.380Z,43.44
2019-05-28T15:30:55.521Z,43.99
2019-05-28T15:33:25.652Z,41.61
2019-05-28T15:35:56.369Z,42.93
2019-05-28T15:38:26.519Z,43.96
2019-05-28T15:40:56.633Z,44.05
2019-05-28T15:43:26.727Z,45.34
2019-05-28T15:45:56.870Z,45.25
2019-05-28T15:48:26.944Z,45.11
2019-05-28T15:50:57.031Z,45.01
2019-05-28T15:53:27.093Z,44.75
2019-05-28T15:55:57.185Z,43.95
2019-05-28T15:58:27.253Z,43.15
2019-05-28T16:00:57.354Z,44.56
2019-05-28T16:03:27.428Z,42.46
2019-05-28T16:05:57.533Z,43.06
2019-05-28T16:08:27.619Z,42.92
2019-05-28T16:10:57.706Z,42.03
2019-05-28T16:13:27.776Z,41.68
2019-05-28T16:15:57.858Z,42.72
2019-05-28T16:18:27.952Z,43.41
2019-05-28T16:20:58.072Z,44.00
2019-05-28T16:23:28.191Z,44.23
2019-05-28T16:25:58.272Z,43.38
2019-05-28T16:28:28.427Z,42.51
2019-05-28T16:31:11.742Z,43.09
2019-05-28T16:33:30.371Z,41.49
2019-05-28T16:36:00.442Z,41.39
2019-05-28T16:38:30.554Z,41.74
2019-05-28T16:41:00.630Z,40.78
2019-05-28T16:43:30.759Z,40.41
2019-05-28T16:46:00.862Z,41.23
2019-05-28T16:48:30.994Z,40.94
2019-05-28T16:51:01.122Z,40.38
2019-05-28T16:53:34.045Z,42.28
2019-05-28T16:56:04.164Z,43.32
2019-05-28T16:58:34.272Z,42.32
2019-05-28T17:01:21.865Z,43.10
2019-05-28T17:03:39.363Z,44.01
2019-05-28T17:06:09.464Z,43.59
2019-05-28T17:08:39.556Z,43.40
2019-05-28T17:11:09.694Z,44.26
2019-05-28T17:13:40.718Z,44.98
2019-05-28T17:16:12.685Z,44.84
2019-05-28T17:18:42.844Z,45.28
2019-05-28T17:21:13.033Z,45.40
2019-05-28T17:23:43.622Z,44.49
2019-05-28T17:26:13.908Z,45.58
2019-05-28T17:28:44.059Z,45.22
2019-05-28T17:31:14.214Z,45.40
2019-05-28T17:33:44.309Z,46.07
2019-05-28T17:36:14.432Z,46.44
2019-05-28T17:38:44.550Z,46.58
2019-05-28T17:41:14.646Z,46.35
2019-05-28T17:43:44.804Z,44.28
2019-05-28T17:46:14.897Z,45.07
2019-05-28T17:48:47.749Z,44.66
2019-05-28T17:51:17.857Z,45.10
2019-05-28T17:53:47.972Z,45.63
2019-05-28T17:56:18.070Z,45.68
2019-05-28T17:58:48.164Z,45.43
2019-05-28T18:01:18.320Z,46.34
2019-05-28T18:03:48.562Z,46.18
2019-05-28T18:06:18.773Z,46.25
2019-05-28T18:08:48.927Z,47.18
2019-05-28T18:11:19.120Z,46.94
2019-05-28T18:13:49.242Z,48.01
2019-05-28T18:16:19.318Z,47.49
2019-05-28T18:18:54.025Z,48.35
2019-05-28T18:21:24.156Z,48.40
2019-05-28T18:23:54.277Z,49.59
2019-05-28T18:26:24.394Z,48.85
2019-05-28T18:28:54.509Z,48.27
2019-05-28T18:31:24.812Z,48.95
2019-05-28T18:33:54.963Z,48.87
2019-05-28T18:36:25.215Z,50.53
2019-05-28T18:38:55.795Z,49.97
2019-05-28T18:41:26.299Z,50.06
2019-05-28T18:43:56.938Z,50.47
2019-05-28T18:46:27.123Z,50.71
2019-05-28T18:48:57.437Z,50.40
2019-05-28T18:51:27.562Z,51.57
2019-05-28T18:54:00.254Z,51.22
2019-05-28T18:56:30.401Z,52.14
2019-05-28T18:59:00.559Z,51.64
2019-05-28T19:01:30.679Z,51.58
2019-05-28T19:04:06.800Z,52.15
2019-05-28T19:06:36.962Z,52.01
2019-05-28T19:09:11.420Z,52.64
2019-05-28T19:11:41.508Z,54.09
2019-05-28T19:14:11.640Z,54.55
2019-05-28T19:16:41.858Z,54.72
2019-05-28T19:19:12.011Z,54.29
2019-05-28T19:21:42.284Z,55.27
2019-05-28T19:24:12.576Z,54.42
2019-05-28T19:26:42.787Z,55.47
2019-05-28T19:29:12.977Z,55.27
2019-05-28T19:31:43.083Z,55.15
2019-05-28T19:34:13.414Z,55.90
2019-05-28T19:36:44.863Z,55.82
2019-05-28T19:39:15.972Z,56.38
2019-05-28T19:41:54.317Z,57.22
2019-05-28T19:44:18.224Z,57.65
2019-05-28T19:46:48.367Z,57.51
2019-05-28T19:49:18.532Z,58.21
2019-05-28T19:51:48.684Z,58.68
2019-05-28T19:54:18.788Z,57.91
2019-05-28T19:56:48.964Z,58.79
2019-05-28T19:59:19.112Z,58.44
2019-05-28T20:01:49.254Z,59.52
2019-05-28T20:04:19.395Z,59.53
2019-05-28T20:06:49.475Z,59.72
2019-05-28T20:09:19.565Z,60.81
2019-05-28T20:11:49.725Z,60.79
2019-05-28T20:14:19.900Z,61.26
2019-05-28T20:16:51.204Z,61.11
2019-05-28T20:19:21.368Z,61.45
2019-05-28T20:21:53.539Z,61.36
2019-05-28T20:24:23.518Z,62.58
2019-05-28T20:26:53.974Z,63.33
2019-05-28T20:29:24.188Z,63.02
2019-05-28T20:31:54.357Z,63.11
2019-05-28T20:34:24.528Z,63.11
2019-05-28T20:36:54.705Z,63.32
2019-05-28T20:39:24.826Z,63.22
2019-05-28T20:41:55.106Z,63.98
2019-05-28T20:44:25.268Z,64.19
2019-05-28T20:46:55.365Z,64.09
2019-05-28T20:49:25.503Z,64.01
2019-05-28T20:51:55.622Z,64.23
2019-05-28T20:54:25.714Z,65.91
2019-05-28T20:56:56.802Z,64.90
2019-05-28T20:59:27.680Z,65.94
2019-05-28T21:01:58.093Z,66.28
2019-05-28T21:04:28.279Z,66.82
2019-05-28T21:06:58.854Z,67.06
2019-05-28T21:09:29.113Z,66.60
2019-05-28T21:11:59.218Z,67.52
2019-05-28T21:14:29.312Z,68.22
2019-05-28T21:16:59.506Z,68.01
2019-05-28T21:19:29.590Z,68.16
2019-05-28T21:21:59.801Z,68.53
2019-05-28T21:24:29.864Z,68.78
2019-05-28T21:27:00.353Z,68.96
2019-05-28T21:29:30.535Z,69.08
2019-05-28T21:32:00.809Z,69.41
2019-05-28T21:34:30.907Z,69.35
2019-05-28T21:37:02.610Z,69.48
2019-05-28T21:39:32.829Z,69.47
2019-05-28T21:42:03.369Z,70.31
2019-05-28T21:44:33.748Z,70.39
2019-05-28T21:47:03.823Z,70.35
2019-05-28T21:49:33.943Z,71.21
2019-05-28T21:52:04.211Z,71.25
2019-05-28T21:54:34.250Z,71.26
2019-05-28T21:57:04.446Z,70.91
2019-05-28T21:59:34.567Z,70.62
2019-05-28T22:02:04.937Z,71.31
2019-05-28T22:04:34.966Z,71.63
2019-05-28T22:07:05.052Z,71.98
2019-05-28T22:09:35.132Z,71.69
2019-05-28T22:12:05.277Z,71.82
2019-05-28T22:14:35.430Z,72.13
2019-05-28T22:17:05.718Z,71.74
2019-05-28T22:19:35.837Z,72.46
2019-05-28T22:22:05.944Z,72.38
2019-05-28T22:24:36.062Z,73.03
2019-05-28T22:27:06.337Z,72.52
2019-05-28T22:29:36.426Z,73.04
2019-05-28T22:32:07.054Z,73.48
2019-05-28T22:34:37.254Z,73.41
2019-05-28T22:37:09.130Z,73.51
2019-05-28T22:39:39.241Z,73.61
2019-05-28T22:42:09.443Z,73.67
2019-05-28T22:44:39.515Z,74.00
2019-05-28T22:47:09.701Z,74.31
2019-05-28T22:49:39.756Z,74.94
2019-05-28T22:52:09.836Z,74.64
2019-05-28T22:54:39.877Z,75.70
2019-05-28T22:57:09.966Z,74.99
2019-05-28T22:59:40.061Z,76.06
2019-05-28T23:02:10.175Z,76.50
2019-05-28T23:04:40.245Z,76.92
2019-05-28T23:07:10.382Z,77.37
2019-05-28T23:09:40.486Z,78.13
2019-05-28T23:12:10.585Z,78.34
2019-05-28T23:14:40.686Z,78.27
2019-05-28T23:17:10.767Z,78.58
2019-05-28T23:19:40.826Z,78.48
2019-05-28T23:22:11.147Z,79.11
2019-05-28T23:24:41.249Z,78.61
2019-05-28T23:27:11.657Z,79.12
2019-05-28T23:29:41.822Z,79.10
2019-05-28T23:32:12.444Z,79.23
2019-05-28T23:34:42.570Z,79.41
2019-05-28T23:37:12.998Z,79.91
2019-05-28T23:39:43.248Z,79.65
2019-05-28T23:42:13.662Z,79.66
2019-05-28T23:44:43.795Z,79.96
2019-05-28T23:47:14.286Z,80.18
2019-05-28T23:49:44.564Z,79.91
2019-05-28T23:52:14.892Z,81.08
2019-05-28T23:54:45.168Z,81.38
2019-05-28T23:57:15.262Z,80.75
2019-05-28T23:59:45.331Z,81.08
